Time;durP1;ratioP1;P1;durP2;ratioP2;P2;SDS_P1;SDS_P2;PMS_P1;PMS_P2;Temp;Humidity;BMP_temperature;BMP_pressure;BME280_temperature;BME280_humidity;BME280_pressure;Samples;Min_cycle;Max_cycle;Signal;HPM_P1;HPM_P2
2022/03/20 00:00:31;;;;;;;9.37;3.23;;;11.60;38.80;;;;;;5080139;28;20982;-93
2022/03/20 00:03:00;;;;;;;10.23;3.33;;;11.60;38.70;;;;;;5080127;28;20204;-93
2022/03/20 00:05:30;;;;;;;11.60;3.63;;;11.50;38.90;;;;;;5078309;28;20201;-93
2022/03/20 00:08:01;;;;;;;15.53;4.90;;;11.50;39.10;;;;;;5074613;28;20644;-93
2022/03/20 00:10:31;;;;;;;8.90;2.87;;;11.50;39.20;;;;;;5080931;28;20579;-94
2022/03/20 00:13:00;;;;;;;7.93;2.47;;;11.50;39.20;;;;;;5080813;28;20238;-92
2022/03/20 00:15:31;;;;;;;8.13;2.53;;;11.40;39.10;;;;;;5079723;28;20219;-93
2022/03/20 00:18:00;;;;;;;10.77;3.53;;;11.40;39.60;;;;;;5079928;28;20291;-93
2022/03/20 00:20:29;;;;;;;5.97;2.23;;;11.40;39.60;;;;;;5080632;28;20258;-93
2022/03/20 00:23:04;;;;;;;5.67;2.37;;;11.40;39.60;;;;;;5078893;28;20199;-92
2022/03/20 00:25:42;;;;;;;9.70;3.27;;;11.30;39.70;;;;;;5062708;28;20207;-93
2022/03/20 00:28:11;;;;;;;9.73;2.73;;;11.30;39.60;;;;;;5082136;28;20205;-93
2022/03/20 00:30:41;;;;;;;11.07;3.60;;;11.30;39.60;;;;;;5074965;28;20205;-91
2022/03/20 00:33:11;;;;;;;9.33;3.17;;;11.20;39.50;;;;;;5079981;28;20260;-93
2022/03/20 00:35:42;;;;;;;9.93;2.50;;;11.20;39.80;;;;;;5083970;28;20193;-93
2022/03/20 00:38:13;;;;;;;10.17;3.33;;;11.20;39.60;;;;;;5063701;28;20251;-93
2022/03/20 00:43:28;;;;;;;10.67;3.60;;;11.10;39.90;;;;;;5080416;28;20314;-93
2022/03/20 00:45:58;;;;;;;13.83;3.80;;;11.10;39.80;;;;;;5078130;28;20201;-93
2022/03/20 00:48:27;;;;;;;10.43;3.17;;;11.10;40.20;;;;;;5088522;28;20196;-93
2022/03/20 00:51:03;;;;;;;10.57;3.83;;;11.00;40.10;;;;;;5090657;28;20200;-93
2022/03/20 00:53:34;;;;;;;8.90;3.30;;;11.00;40.40;;;;;;5085572;28;20785;-93
2022/03/20 00:56:04;;;;;;;7.70;2.83;;;11.00;40.40;;;;;;5079540;28;20278;-93
2022/03/20 00:58:31;;;;;;;8.73;3.13;;;10.90;40.40;;;;;;5076475;28;20207;-92
2022/03/20 01:01:02;;;;;;;7.93;2.97;;;10.90;40.50;;;;;;5078074;28;20230;-93
2022/03/20 01:03:32;;;;;;;10.33;3.23;;;10.90;40.60;;;;;;5080916;28;20196;-93
2022/03/20 01:06:01;;;;;;;12.40;3.80;;;10.80;40.70;;;;;;5081742;28;20254;-93
2022/03/20 01:08:29;;;;;;;12.47;3.53;;;10.80;40.80;;;;;;5077597;28;20634;-94
2022/03/20 01:10:56;;;;;;;7.37;2.90;;;10.80;40.80;;;;;;5083229;28;20208;-93
2022/03/20 01:13:25;;;;;;;10.67;3.50;;;10.70;40.90;;;;;;5092811;28;20204;-93
2022/03/20 01:16:06;;;;;;;7.13;2.87;;;10.70;41.00;;;;;;5095218;28;20219;-92
2022/03/20 01:18:34;;;;;;;8.83;3.13;;;10.70;41.40;;;;;;5088305;28;20213;-93
2022/03/20 01:21:05;;;;;;;10.90;3.30;;;10.60;41.20;;;;;;5078963;28;20659;-92
2022/03/20 01:23:32;;;;;;;10.53;3.07;;;10.60;41.20;;;;;;5078971;28;20280;-92
2022/03/20 01:26:07;;;;;;;9.10;3.00;;;10.60;41.40;;;;;;5079380;28;20253;-93
2022/03/20 01:28:38;;;;;;;7.83;2.93;;;10.50;41.80;;;;;;5083155;28;20202;-93
2022/03/20 01:31:17;;;;;;;9.07;2.67;;;10.50;41.80;;;;;;5083066;28;20259;-92
2022/03/20 01:33:49;;;;;;;11.27;3.37;;;10.40;41.90;;;;;;5079055;28;20208;-92
2022/03/20 01:36:16;;;;;;;9.97;3.40;;;10.40;41.90;;;;;;5069836;28;20208;-94
2022/03/20 01:38:46;;;;;;;11.03;3.40;;;10.30;41.80;;;;;;5080072;28;20440;-92
2022/03/20 01:41:17;;;;;;;9.50;3.10;;;10.30;42.00;;;;;;5091823;28;20206;-93
2022/03/20 01:43:55;;;;;;;7.03;2.60;;;10.30;42.20;;;;;;5080826;28;20188;-93
2022/03/20 01:46:37;;;;;;;7.73;2.77;;;10.20;42.30;;;;;;5094231;28;20576;-93
2022/03/20 01:49:05;;;;;;;7.17;2.73;;;10.20;42.50;;;;;;5098116;28;20203;-93
2022/03/20 01:54:25;;;;;;;11.93;3.83;;;10.10;42.60;;;;;;5078728;28;20205;-92
2022/03/20 01:56:58;;;;;;;11.77;3.53;;;10.10;42.50;;;;;;5070565;28;20284;-93
2022/03/20 01:59:32;;;;;;;9.90;3.10;;;10.10;42.70;;;;;;5082988;28;20667;-93
2022/03/20 02:02:11;;;;;;;15.40;3.63;;;10.00;43.00;;;;;;5083082;28;20725;-92
2022/03/20 02:04:38;;;;;;;16.37;4.67;;;9.90;43.90;;;;;;5081306;28;20201;-93
2022/03/20 02:07:09;;;;;;;8.40;2.60;;;9.90;43.60;;;;;;5078660;28;20197;-92
2022/03/20 02:09:41;;;;;;;10.77;3.40;;;9.90;43.80;;;;;;5078481;28;20196;-92
2022/03/20 02:12:12;;;;;;;7.77;2.83;;;9.90;43.90;;;;;;5078868;28;20246;-93
2022/03/20 02:14:43;;;;;;;8.63;2.87;;;9.80;43.90;;;;;;5078169;28;20288;-92
2022/03/20 02:17:16;;;;;;;10.50;2.37;;;9.80;44.20;;;;;;5061338;28;20223;-92
2022/03/20 02:19:49;;;;;;;12.53;3.50;;;9.80;44.80;;;;;;5078255;28;20664;-92
2022/03/20 02:22:25;;;;;;;11.07;3.33;;;9.80;44.40;;;;;;5062702;28;20228;-92
2022/03/20 02:24:55;;;;;;;7.33;2.77;;;9.70;44.60;;;;;;5077739;28;20683;-93
2022/03/20 02:27:29;;;;;;;12.07;3.70;;;9.70;44.70;;;;;;5078717;28;20192;-93
2022/03/20 02:29:58;;;;;;;7.87;2.67;;;9.70;45.10;;;;;;5077905;28;20537;-93
2022/03/20 02:32:30;;;;;;;8.23;3.00;;;9.70;45.20;;;;;;5074313;28;20644;-93
2022/03/20 02:35:01;;;;;;;12.30;3.60;;;9.70;45.40;;;;;;5071023;28;20199;-93
2022/03/20 02:37:32;;;;;;;13.00;3.87;;;9.60;45.40;;;;;;5078222;28;20231;-93
2022/03/20 02:40:00;;;;;;;10.10;3.27;;;9.60;45.80;;;;;;5080538;28;20207;-93
2022/03/20 02:42:30;;;;;;;12.13;4.00;;;9.60;45.80;;;;;;5079848;28;20200;-93
2022/03/20 02:45:05;;;;;;;6.97;3.30;;;9.60;45.80;;;;;;5080691;28;20218;-93
2022/03/20 02:47:34;;;;;;;15.57;4.57;;;9.50;46.10;;;;;;5081764;28;20208;-93
2022/03/20 02:50:07;;;;;;;6.80;2.60;;;9.50;46.30;;;;;;5085383;28;20214;-93
2022/03/20 02:52:49;;;;;;;12.50;4.47;;;9.50;46.60;;;;;;5081949;28;20199;-92
2022/03/20 02:55:22;;;;;;;9.00;3.37;;;9.50;47.00;;;;;;5088440;28;20187;-93
2022/03/20 02:57:59;;;;;;;11.17;3.43;;;9.50;46.50;;;;;;5082956;28;20302;-93
2022/03/20 03:00:33;;;;;;;8.37;3.00;;;9.40;46.60;;;;;;5089037;28;20227;-92
2022/03/20 03:03:11;;;;;;;12.30;3.87;;;9.40;46.50;;;;;;5084960;28;20191;-94
2022/03/20 03:05:40;;;;;;;7.43;2.67;;;9.40;46.50;;;;;;5086910;28;20268;-93
2022/03/20 03:10:59;;;;;;;8.43;3.00;;;9.30;46.60;;;;;;5077553;28;20211;-93
2022/03/20 03:13:35;;;;;;;12.23;3.80;;;9.30;46.60;;;;;;5081348;28;20637;-93
2022/03/20 03:16:04;;;;;;;6.83;3.03;;;9.30;46.90;;;;;;5079893;28;20273;-93
2022/03/20 03:18:38;;;;;;;10.97;3.30;;;9.30;46.90;;;;;;5079702;28;20687;-94
2022/03/20 03:21:11;;;;;;;13.03;3.87;;;9.30;47.20;;;;;;5079136;28;20203;-93
2022/03/20 03:23:56;;;;;;;11.07;4.10;;;9.20;47.30;;;;;;5079408;28;20191;-93
2022/03/20 03:26:25;;;;;;;12.47;3.80;;;9.20;47.50;;;;;;5083635;28;20195;-93
2022/03/20 03:28:52;;;;;;;9.03;3.27;;;9.20;47.10;;;;;;5083254;28;20392;-93
2022/03/20 03:31:19;;;;;;;12.50;4.43;;;9.20;47.10;;;;;;5074460;28;20659;-93
2022/03/20 03:36:31;;;;;;;11.77;4.33;;;9.10;47.40;;;;;;5078985;28;20189;-93
2022/03/20 03:39:01;;;;;;;9.63;3.30;;;9.10;47.70;;;;;;5077616;28;20670;-93
2022/03/20 03:41:29;;;;;;;8.50;3.20;;;9.10;47.70;;;;;;5077475;28;20231;-94
2022/03/20 03:44:01;;;;;;;13.63;3.93;;;9.00;47.60;;;;;;5076477;28;20197;-93
2022/03/20 03:46:28;;;;;;;10.97;3.93;;;9.00;47.90;;;;;;5076477;28;20227;-93
2022/03/20 03:48:58;;;;;;;12.33;3.63;;;9.00;47.90;;;;;;5077366;28;20618;-92
2022/03/20 03:51:32;;;;;;;7.23;3.13;;;9.00;47.90;;;;;;5076813;28;20987;-93
2022/03/20 03:54:01;;;;;;;8.73;3.43;;;8.90;48.50;;;;;;5076605;28;20225;-93
2022/03/20 03:56:34;;;;;;;10.30;4.17;;;8.90;48.40;;;;;;5076400;28;20200;-93
2022/03/20 03:59:04;;;;;;;16.17;5.23;;;8.90;48.50;;;;;;5074263;28;20226;-94
2022/03/20 04:01:34;;;;;;;9.77;3.37;;;8.90;48.20;;;;;;5075034;28;20218;-92
2022/03/20 04:04:04;;;;;;;8.57;3.33;;;8.80;48.30;;;;;;5077373;28;20223;-93
2022/03/20 04:06:32;;;;;;;8.70;3.20;;;8.80;48.50;;;;;;5076889;28;20785;-93
2022/03/20 04:09:08;;;;;;;9.20;3.60;;;8.80;48.60;;;;;;5077485;28;20208;-93
2022/03/20 04:11:35;;;;;;;13.23;3.90;;;8.80;49.00;;;;;;5076832;28;20206;-93
2022/03/20 04:14:11;;;;;;;12.30;3.93;;;8.70;48.90;;;;;;5075991;28;20265;-94
2022/03/20 04:16:44;;;;;;;12.33;4.40;;;8.70;49.50;;;;;;5078020;28;20206;-91
2022/03/20 04:19:13;;;;;;;12.30;3.70;;;8.70;49.40;;;;;;5077119;28;20257;-93
2022/03/20 04:21:44;;;;;;;13.23;4.40;;;8.70;49.00;;;;;;5077217;28;20548;-93
2022/03/20 04:24:13;;;;;;;12.83;4.23;;;8.70;49.20;;;;;;5078070;28;20218;-93
2022/03/20 04:26:57;;;;;;;9.00;3.70;;;8.70;49.10;;;;;;5070174;28;20242;-93
2022/03/20 04:29:30;;;;;;;11.10;4.47;;;8.70;49.80;;;;;;5077353;28;20203;-93
2022/03/20 04:32:00;;;;;;;12.87;4.70;;;8.60;49.50;;;;;;5076364;28;20200;-95
2022/03/20 04:34:34;;;;;;;14.83;5.10;;;8.70;49.30;;;;;;5077403;28;20188;-93
2022/03/20 04:37:10;;;;;;;12.97;4.77;;;8.60;49.50;;;;;;5080287;28;20227;-93
2022/03/20 04:39:41;;;;;;;11.87;3.90;;;8.60;49.50;;;;;;5081723;28;20210;-93
2022/03/20 04:42:14;;;;;;;13.83;5.17;;;8.60;50.20;;;;;;5081659;28;20211;-92
2022/03/20 04:44:50;;;;;;;10.70;3.93;;;8.60;49.60;;;;;;5082551;28;20199;-94
2022/03/20 04:58:32;;;;;;;14.10;5.17;;;8.50;49.50;;;;;;5084462;28;20686;-93
2022/03/20 05:01:01;;;;;;;12.50;4.63;;;8.50;49.40;;;;;;5081064;28;20300;-92
2022/03/20 05:06:23;;;;;;;16.37;6.50;;;8.40;49.40;;;;;;5077900;28;20916;-93
2022/03/20 05:08:50;;;;;;;15.20;6.30;;;8.40;49.80;;;;;;5062854;28;20279;-92
2022/03/20 05:14:07;;;;;;;15.50;5.93;;;8.40;50.10;;;;;;5077427;28;20337;-93
2022/03/20 05:16:37;;;;;;;12.43;5.30;;;8.30;49.80;;;;;;5075433;28;20255;-93
2022/03/20 05:19:09;;;;;;;10.87;5.47;;;8.30;50.10;;;;;;5081350;28;20262;-92
2022/03/20 05:21:39;;;;;;;11.73;5.60;;;8.30;50.20;;;;;;5170089;22;20309;-93
2022/03/20 05:24:09;;;;;;;15.50;6.63;;;8.30;50.10;;;;;;5062618;28;20185;-93
2022/03/20 05:26:38;;;;;;;14.57;6.40;;;8.20;50.20;;;;;;5057904;28;20206;-93
2022/03/20 05:29:09;;;;;;;13.90;6.40;;;8.20;50.00;;;;;;5046716;28;20296;-94
2022/03/20 05:31:42;;;;;;;17.47;7.20;;;8.20;50.20;;;;;;5041628;28;20204;-93
2022/03/20 05:34:12;;;;;;;17.07;6.73;;;8.20;50.30;;;;;;5057674;28;20222;-94
2022/03/20 05:36:52;;;;;;;18.57;7.70;;;8.20;50.40;;;;;;5050025;28;20324;-93
2022/03/20 05:40:06;;;;;;;17.90;7.67;;;8.10;50.30;;;;;;5035805;28;20231;-93
2022/03/20 05:42:36;;;;;;;13.00;6.87;;;8.10;50.40;;;;;;5058937;28;20231;-94
2022/03/20 05:45:05;;;;;;;20.53;8.23;;;8.10;50.20;;;;;;5058251;28;20216;-93
2022/03/20 05:47:35;;;;;;;13.50;7.03;;;8.10;50.10;;;;;;5045779;28;20203;-93
2022/03/20 05:50:08;;;;;;;18.33;8.07;;;8.10;50.30;;;;;;5043371;28;20590;-92
2022/03/20 05:52:54;;;;;;;16.67;8.13;;;8.10;50.50;;;;;;5036593;28;20225;-92
2022/03/20 05:58:16;;;;;;;16.83;8.30;;;8.00;50.40;;;;;;5064612;28;20243;-93
2022/03/20 06:00:47;;;;;;;18.53;8.60;;;8.00;50.50;;;;;;5026823;28;20190;-92
2022/03/20 06:03:24;;;;;;;22.60;8.93;;;8.00;50.40;;;;;;5044730;28;20205;-93
2022/03/20 06:05:52;;;;;;;15.07;7.93;;;8.00;50.50;;;;;;5027887;28;20265;-93
2022/03/20 06:08:21;;;;;;;22.03;9.90;;;8.00;50.50;;;;;;5045549;28;20200;-92
2022/03/20 06:10:58;;;;;;;11.90;7.90;;;8.00;50.60;;;;;;5046805;28;20183;-96
2022/03/20 06:13:28;;;;;;;21.27;8.83;;;7.90;50.80;;;;;;5052844;28;20211;-92
2022/03/20 06:15:57;;;;;;;22.77;9.53;;;7.90;50.50;;;;;;5055146;28;20256;-93
2022/03/20 06:18:31;;;;;;;25.00;11.27;;;7.90;50.60;;;;;;5035583;28;20224;-95
2022/03/20 06:21:01;;;;;;;16.63;9.00;;;7.90;50.80;;;;;;5052462;28;20218;-92
2022/03/20 06:23:34;;;;;;;21.63;10.53;;;7.90;51.30;;;;;;5043647;28;20239;-92
2022/03/20 06:26:03;;;;;;;20.70;9.97;;;7.90;50.90;;;;;;5036125;28;20619;-93
2022/03/20 06:28:40;;;;;;;23.90;11.27;;;7.90;50.60;;;;;;5051022;28;20226;-93
2022/03/20 06:31:10;;;;;;;18.53;10.43;;;7.90;50.60;;;;;;5047288;28;20305;-92
2022/03/20 06:33:41;;;;;;;20.97;9.93;;;7.90;50.70;;;;;;5036060;28;20210;-93
2022/03/20 06:36:09;;;;;;;24.47;11.20;;;7.90;50.80;;;;;;5052381;28;20220;-92
2022/03/20 06:38:42;;;;;;;20.00;10.23;;;7.90;50.70;;;;;;5051011;28;20251;-92
2022/03/20 06:41:13;;;;;;;25.27;11.57;;;7.90;50.80;;;;;;5046323;28;20201;-92
2022/03/20 06:43:44;;;;;;;18.27;10.53;;;7.90;50.50;;;;;;5034895;28;20208;-92
2022/03/20 06:46:12;;;;;;;23.60;11.40;;;7.90;50.80;;;;;;5036211;28;20255;-92
2022/03/20 06:48:39;;;;;;;14.10;9.33;;;7.90;50.70;;;;;;5043565;28;20219;-92
2022/03/20 06:51:27;;;;;;;20.63;9.73;;;7.90;50.80;;;;;;5055317;28;20240;-93
2022/03/20 06:53:57;;;;;;;22.87;10.87;;;7.90;51.20;;;;;;5053568;28;20223;-93
2022/03/20 06:56:35;;;;;;;22.87;10.40;;;7.90;50.80;;;;;;5048578;28;20254;-92
2022/03/20 06:59:03;;;;;;;17.90;10.67;;;7.90;50.90;;;;;;5035592;28;20240;-92
2022/03/20 07:01:34;;;;;;;22.47;11.47;;;7.90;51.00;;;;;;5035969;28;20201;-93
2022/03/20 07:04:03;;;;;;;20.03;10.40;;;8.00;51.10;;;;;;5036090;28;20215;-93
2022/03/20 07:06:31;;;;;;;24.40;11.70;;;8.00;51.20;;;;;;5052851;28;20200;-92
2022/03/20 07:09:01;;;;;;;20.57;10.17;;;8.00;51.10;;;;;;5048059;28;20201;-93
2022/03/20 07:11:32;;;;;;;18.90;10.03;;;8.00;51.20;;;;;;5035799;28;20307;-92
2022/03/20 07:14:01;;;;;;;18.97;10.87;;;8.00;51.20;;;;;;5026024;28;20674;-92
2022/03/20 07:16:33;;;;;;;26.27;11.93;;;8.00;51.30;;;;;;5014956;28;20194;-92
2022/03/20 07:19:02;;;;;;;19.30;10.00;;;8.00;51.20;;;;;;5027102;28;20228;-93
2022/03/20 07:21:32;;;;;;;26.33;12.27;;;8.10;51.30;;;;;;5054862;28;20203;-93
2022/03/20 07:24:08;;;;;;;18.70;10.73;;;8.10;51.20;;;;;;5026733;28;20204;-94
2022/03/20 07:29:33;;;;;;;22.03;12.03;;;8.10;51.30;;;;;;5062938;28;20183;-94
2022/03/20 07:32:06;;;;;;;18.03;11.03;;;8.10;51.30;;;;;;5048139;28;20201;-94
2022/03/20 07:34:35;;;;;;;24.73;12.00;;;8.20;51.50;;;;;;5042964;28;20208;-94
2022/03/20 07:37:05;;;;;;;22.30;11.37;;;8.20;51.40;;;;;;5030244;28;20676;-93
2022/03/20 07:39:33;;;;;;;26.17;12.90;;;8.30;51.50;;;;;;5027456;28;20235;-93
2022/03/20 07:42:09;;;;;;;25.00;11.90;;;8.30;51.50;;;;;;5025526;28;20196;-94
2022/03/20 07:44:36;;;;;;;31.83;14.97;;;8.40;51.70;;;;;;5027920;28;20260;-93
2022/03/20 07:47:08;;;;;;;20.53;12.27;;;8.40;51.50;;;;;;5032713;28;20298;-93
2022/03/20 07:49:37;;;;;;;26.00;13.20;;;8.50;51.70;;;;;;5051779;28;20196;-94
2022/03/20 07:52:06;;;;;;;24.97;13.10;;;8.50;51.60;;;;;;5042215;28;20637;-91
2022/03/20 07:54:34;;;;;;;29.50;13.80;;;8.60;51.70;;;;;;5028926;28;20760;-92
2022/03/20 07:57:01;;;;;;;22.87;13.33;;;8.60;52.10;;;;;;5030972;28;20699;-91
2022/03/20 07:59:28;;;;;;;24.40;13.37;;;8.70;52.00;;;;;;5030460;28;20308;-91
2022/03/20 08:01:55;;;;;;;28.47;15.40;;;8.70;51.80;;;;;;5028189;28;20297;-92
2022/03/20 08:04:24;;;;;;;24.57;13.40;;;8.80;51.80;;;;;;5029322;28;20650;-91
2022/03/20 08:06:52;;;;;;;28.23;14.30;;;8.80;51.90;;;;;;5029296;28;20202;-93
2022/03/20 08:09:19;;;;;;;27.57;14.27;;;8.90;51.60;;;;;;5030319;28;20243;-93
2022/03/20 08:11:46;;;;;;;26.53;13.20;;;8.90;51.10;;;;;;5037547;28;20232;-93
2022/03/20 08:14:13;;;;;;;28.30;14.37;;;9.00;51.10;;;;;;5032993;28;20256;-92
2022/03/20 08:16:41;;;;;;;26.67;13.47;;;9.10;51.10;;;;;;5030386;28;20267;-92
2022/03/20 08:19:09;;;;;;;25.80;14.10;;;9.10;50.80;;;;;;5032719;28;20229;-93
2022/03/20 08:21:39;;;;;;;28.73;14.40;;;9.20;50.70;;;;;;5039124;28;20245;-92
2022/03/20 08:24:07;;;;;;;26.63;15.30;;;9.30;50.80;;;;;;5039182;28;20201;-92
2022/03/20 08:26:34;;;;;;;27.70;13.90;;;9.40;50.90;;;;;;5035643;28;20593;-91
2022/03/20 08:29:02;;;;;;;25.60;14.27;;;9.40;50.60;;;;;;5033054;28;20299;-92
2022/03/20 08:31:31;;;;;;;34.33;15.87;;;9.50;50.40;;;;;;5033354;28;20308;-92
2022/03/20 08:33:59;;;;;;;28.70;15.63;;;9.60;50.30;;;;;;5038477;28;20201;-93
2022/03/20 08:36:26;;;;;;;27.53;14.70;;;9.70;50.00;;;;;;5035045;28;20311;-94
2022/03/20 08:39:06;;;;;;;23.60;14.17;;;9.70;49.80;;;;;;5035012;28;20344;-94
2022/03/20 08:41:34;;;;;;;30.27;15.47;;;9.80;49.80;;;;;;5036851;28;20281;-93
2022/03/20 08:44:01;;;;;;;23.13;15.20;;;9.90;49.60;;;;;;5043673;28;20211;-93
2022/03/20 08:46:29;;;;;;;28.67;15.63;;;9.90;49.40;;;;;;5037159;28;20225;-93
2022/03/20 08:48:57;;;;;;;25.63;14.30;;;10.00;48.40;;;;;;5055613;28;20265;-93
2022/03/20 08:51:24;;;;;;;25.87;14.93;;;10.00;48.20;;;;;;5051632;28;20686;-93
2022/03/20 08:53:52;;;;;;;28.93;16.27;;;10.00;48.00;;;;;;5043729;28;20228;-93
2022/03/20 08:56:21;;;;;;;25.20;14.17;;;10.10;47.90;;;;;;5034528;28;20247;-93
2022/03/20 08:58:50;;;;;;;28.90;15.97;;;10.10;47.80;;;;;;5039825;28;20769;-92
2022/03/20 09:01:18;;;;;;;31.70;15.27;;;10.20;47.70;;;;;;5039755;28;20200;-93
2022/03/20 09:03:49;;;;;;;28.00;15.33;;;10.20;47.70;;;;;;5036595;28;20758;-93
2022/03/20 09:06:16;;;;;;;29.60;16.53;;;10.30;47.80;;;;;;5028596;28;20205;-92
2022/03/20 09:08:44;;;;;;;27.23;15.43;;;10.30;47.80;;;;;;5052376;28;20226;-93
2022/03/20 09:11:11;;;;;;;26.17;14.53;;;10.40;47.90;;;;;;5037751;28;20217;-90
2022/03/20 09:13:40;;;;;;;24.80;14.63;;;10.40;47.80;;;;;;5032196;28;20202;-93
2022/03/20 09:19:03;;;;;;;30.87;15.97;;;10.50;47.60;;;;;;5043417;28;20350;-92
2022/03/20 09:21:32;;;;;;;26.83;15.03;;;10.50;47.50;;;;;;5031000;28;20211;-91
2022/03/20 09:24:00;;;;;;;27.60;16.07;;;10.60;47.60;;;;;;5039066;28;20203;-92
2022/03/20 09:26:27;;;;;;;28.97;15.73;;;10.60;47.50;;;;;;5040847;28;20663;-93
2022/03/20 09:28:56;;;;;;;28.30;15.87;;;10.70;47.50;;;;;;5034846;28;20285;-91
2022/03/20 09:31:24;;;;;;;26.90;15.80;;;10.70;47.40;;;;;;5029406;28;20649;-91
2022/03/20 09:33:55;;;;;;;30.97;16.83;;;10.80;47.40;;;;;;5031360;28;20202;-91
2022/03/20 09:36:22;;;;;;;23.87;15.40;;;10.80;47.20;;;;;;5030964;28;20280;-92
2022/03/20 09:38:50;;;;;;;32.50;17.17;;;10.90;47.10;;;;;;5030981;28;20205;-92
2022/03/20 09:41:17;;;;;;;30.77;16.53;;;11.00;46.90;;;;;;5031721;28;20199;-90
2022/03/20 09:43:46;;;;;;;29.37;16.73;;;11.10;46.90;;;;;;5032513;28;20227;-91
2022/03/20 09:46:15;;;;;;;26.17;15.20;;;11.10;46.80;;;;;;5031231;28;20207;-91
2022/03/20 09:48:43;;;;;;;29.30;15.60;;;11.10;46.70;;;;;;5029592;28;20781;-90
2022/03/20 09:51:10;;;;;;;31.00;16.93;;;11.20;46.70;;;;;;5027669;28;20666;-91
2022/03/20 09:53:37;;;;;;;33.07;17.37;;;11.20;46.50;;;;;;5027205;28;20217;-91
2022/03/20 09:56:06;;;;;;;24.37;15.67;;;11.20;46.30;;;;;;5045729;28;20652;-90
2022/03/20 09:58:33;;;;;;;29.07;16.70;;;11.30;46.40;;;;;;5034134;28;20205;-90
2022/03/20 10:01:02;;;;;;;23.27;15.60;;;11.30;46.40;;;;;;5039950;28;20270;-92
2022/03/20 10:03:30;;;;;;;33.17;17.83;;;11.30;46.20;;;;;;5040003;28;20197;-91
2022/03/20 10:06:07;;;;;;;34.83;17.83;;;11.30;46.00;;;;;;5033604;28;20693;-91
2022/03/20 10:08:35;;;;;;;27.40;15.70;;;11.30;46.10;;;;;;5040059;28;20606;-90
2022/03/20 10:11:17;;;;;;;29.30;17.23;;;11.30;46.00;;;;;;5037610;28;20775;-92
2022/03/20 10:14:05;;;;;;;30.77;16.60;;;11.30;45.90;;;;;;5033105;28;20259;-91
2022/03/20 10:16:34;;;;;;;31.70;16.93;;;11.30;45.90;;;;;;5031013;28;20228;-92
2022/03/20 10:19:03;;;;;;;25.57;16.07;;;11.30;45.90;;;;;;5030883;28;20271;-90
2022/03/20 10:21:46;;;;;;;26.80;15.90;;;11.20;45.80;;;;;;5030732;28;20232;-91
2022/03/20 10:24:16;;;;;;;28.83;16.73;;;11.20;45.70;;;;;;5028137;28;20200;-91
2022/03/20 10:26:44;;;;;;;31.40;17.33;;;11.20;45.70;;;;;;5039054;28;20677;-93
2022/03/20 10:29:18;;;;;;;28.00;15.77;;;11.20;46.00;;;;;;5029319;28;20302;-91
2022/03/20 10:31:50;;;;;;;27.27;16.70;;;11.20;46.20;;;;;;5032630;28;20237;-92
2022/03/20 10:34:20;;;;;;;26.80;16.27;;;11.20;45.90;;;;;;5030745;28;20205;-92
2022/03/20 10:36:51;;;;;;;33.27;18.20;;;11.30;46.00;;;;;;5033529;28;20224;-92
2022/03/20 10:39:20;;;;;;;25.77;15.83;;;11.30;45.90;;;;;;5032953;28;20221;-92
2022/03/20 10:41:50;;;;;;;28.33;16.80;;;11.30;45.80;;;;;;5034588;28;20627;-93
2022/03/20 10:44:18;;;;;;;26.10;16.33;;;11.30;45.90;;;;;;5041970;28;20234;-92
2022/03/20 10:46:56;;;;;;;31.63;17.77;;;11.30;45.80;;;;;;5040366;28;20214;-92
2022/03/20 10:49:25;;;;;;;27.57;16.37;;;11.30;46.10;;;;;;5042304;28;20207;-92
2022/03/20 10:52:02;;;;;;;28.43;17.60;;;11.40;46.30;;;;;;5037127;28;20230;-92
2022/03/20 10:54:41;;;;;;;27.73;16.70;;;11.40;46.70;;;;;;5034916;28;20215;-91
2022/03/20 10:57:08;;;;;;;32.33;18.87;;;11.40;46.00;;;;;;5034085;28;20660;-92
2022/03/20 10:59:36;;;;;;;32.47;17.60;;;11.40;46.20;;;;;;5040018;28;20252;-91
2022/03/20 11:02:05;;;;;;;28.83;16.70;;;11.40;46.00;;;;;;5041709;28;20257;-93
2022/03/20 11:04:35;;;;;;;28.87;17.63;;;11.40;45.90;;;;;;5036202;28;20241;-96
2022/03/20 11:07:07;;;;;;;26.23;15.87;;;11.40;45.90;;;;;;5047376;28;20548;-95
2022/03/20 11:09:35;;;;;;;25.77;15.77;;;11.40;45.90;;;;;;5045992;28;20258;-94
2022/03/20 11:12:08;;;;;;;29.57;17.50;;;11.40;45.90;;;;;;5036798;28;20207;-94
2022/03/20 11:14:38;;;;;;;30.93;17.87;;;11.40;45.80;;;;;;5035655;28;20225;-93
2022/03/20 11:17:06;;;;;;;24.73;16.93;;;11.40;45.90;;;;;;5033804;28;20217;-94
2022/03/20 11:19:46;;;;;;;26.67;15.30;;;11.40;45.90;;;;;;5037090;28;20615;-92
2022/03/20 11:22:16;;;;;;;24.13;16.13;;;11.40;45.90;;;;;;5040155;28;20212;-96
2022/03/20 11:24:47;;;;;;;29.20;16.83;;;11.30;46.00;;;;;;5035562;28;20233;-94
2022/03/20 11:27:23;;;;;;;33.70;17.33;;;11.30;46.00;;;;;;5030248;28;20210;-96
2022/03/20 11:29:52;;;;;;;29.90;17.27;;;11.30;46.10;;;;;;5023047;28;20246;-91
2022/03/20 11:32:21;;;;;;;26.87;15.87;;;11.30;46.20;;;;;;5027077;28;20206;-96
2022/03/20 11:34:54;;;;;;;29.93;17.40;;;11.30;46.40;;;;;;5026766;28;20224;-92
2022/03/20 11:37:23;;;;;;;32.10;18.03;;;11.30;46.40;;;;;;5020319;28;20205;-92
2022/03/20 11:40:13;;;;;;;33.90;18.20;;;11.30;46.20;;;;;;5019191;28;20268;-93
2022/03/20 11:42:43;;;;;;;33.00;17.67;;;11.30;46.50;;;;;;5023600;28;20206;-93
2022/03/20 11:45:17;;;;;;;29.83;17.77;;;11.20;46.80;;;;;;5030920;28;20215;-93
2022/03/20 11:47:46;;;;;;;36.80;19.00;;;11.20;47.30;;;;;;5037883;28;20200;-93
2022/03/20 11:50:26;;;;;;;26.50;17.90;;;11.20;47.40;;;;;;5038571;28;20750;-93
2022/03/20 11:53:00;;;;;;;28.80;16.83;;;11.20;47.80;;;;;;5035465;28;20805;-92
2022/03/20 11:55:31;;;;;;;32.60;18.70;;;11.20;48.00;;;;;;5022591;28;20204;-94
2022/03/20 11:58:01;;;;;;;26.03;16.37;;;11.20;47.80;;;;;;5036326;28;20205;-95
2022/03/20 12:00:31;;;;;;;29.30;17.97;;;11.20;47.60;;;;;;5029014;28;20735;-93
2022/03/20 12:03:27;;;;;;;31.10;18.50;;;11.10;47.60;;;;;;5033360;28;20285;-92
2022/03/20 12:06:36;;;;;;;39.70;18.97;;;11.20;48.00;;;;;;5044813;28;20255;-93
2022/03/20 12:09:18;;;;;;;34.67;17.60;;;11.20;47.80;;;;;;5032118;28;20205;-92
2022/03/20 12:12:09;;;;;;;30.40;18.47;;;11.20;47.60;;;;;;5046762;28;20201;-92
2022/03/20 12:14:40;;;;;;;32.87;18.77;;;11.20;48.30;;;;;;5030755;28;20715;-94
2022/03/20 12:17:08;;;;;;;26.97;16.77;;;11.20;47.50;;;;;;5039237;28;20659;-94
2022/03/20 12:19:42;;;;;;;34.43;18.87;;;11.20;47.50;;;;;;5035190;28;20344;-93
2022/03/20 12:22:14;;;;;;;32.13;18.47;;;11.20;47.60;;;;;;5038510;28;20219;-92
2022/03/20 12:24:58;;;;;;;24.43;16.70;;;11.20;47.70;;;;;;5033683;28;20963;-94
2022/03/20 12:27:45;;;;;;;26.77;17.80;;;11.20;47.70;;;;;;5040979;28;20203;-91
2022/03/20 12:30:37;;;;;;;29.17;18.33;;;11.20;48.00;;;;;;5045786;28;20232;-94
2022/03/20 12:33:24;;;;;;;32.53;19.67;;;11.20;48.30;;;;;;5041479;28;20200;-92
2022/03/20 12:35:53;;;;;;;26.27;16.80;;;11.30;48.50;;;;;;5045048;28;20220;-93
2022/03/20 12:38:40;;;;;;;28.80;17.83;;;11.30;48.10;;;;;;5039798;28;20228;-94
2022/03/20 12:41:15;;;;;;;40.60;21.03;;;11.30;48.40;;;;;;5042474;28;20685;-94
2022/03/20 12:43:44;;;;;;;29.93;18.70;;;11.30;48.30;;;;;;5044287;28;20665;-94
2022/03/20 12:46:21;;;;;;;28.30;17.87;;;11.30;48.20;;;;;;5042789;28;20276;-93
2022/03/20 12:48:53;;;;;;;28.83;17.43;;;11.30;48.20;;;;;;5043809;28;20215;-95
2022/03/20 12:51:34;;;;;;;27.23;17.57;;;11.40;48.30;;;;;;5043678;28;20810;-93
2022/03/20 12:54:14;;;;;;;32.73;18.47;;;11.40;48.50;;;;;;5040189;28;20244;-93
2022/03/20 12:56:58;;;;;;;32.57;18.57;;;11.40;48.40;;;;;;5038613;28;20231;-95
2022/03/20 12:59:26;;;;;;;30.47;17.97;;;11.40;48.30;;;;;;5037171;28;20246;-93
2022/03/20 13:01:54;;;;;;;29.67;19.37;;;11.50;48.00;;;;;;5034270;28;20232;-93
2022/03/20 13:04:21;;;;;;;28.03;18.60;;;11.50;48.00;;;;;;5029953;28;20211;-94
2022/03/20 13:06:52;;;;;;;30.87;19.13;;;11.50;48.10;;;;;;5032020;28;20558;-95
2022/03/20 13:09:19;;;;;;;27.87;17.90;;;11.50;48.20;;;;;;5038300;28;20203;-93
2022/03/20 13:11:51;;;;;;;29.40;19.13;;;11.50;48.70;;;;;;5040233;28;20212;-94
2022/03/20 13:14:22;;;;;;;31.33;19.17;;;11.60;48.20;;;;;;5032218;28;20212;-94
2022/03/20 13:16:53;;;;;;;27.60;18.33;;;11.60;48.00;;;;;;5028908;28;20287;-94
2022/03/20 13:19:43;;;;;;;33.50;19.07;;;11.60;48.00;;;;;;5035373;28;20213;-96
2022/03/20 13:22:13;;;;;;;27.10;18.10;;;11.60;47.70;;;;;;5035369;28;20232;-95
2022/03/20 13:24:42;;;;;;;28.20;18.37;;;11.60;47.50;;;;;;5036396;28;20208;-95
2022/03/20 13:27:11;;;;;;;33.63;19.03;;;11.60;47.40;;;;;;5037944;28;20215;-94
2022/03/20 13:29:50;;;;;;;34.13;19.27;;;11.60;47.40;;;;;;5035527;28;20611;-93
2022/03/20 13:32:21;;;;;;;36.47;20.77;;;11.60;47.70;;;;;;5027922;28;20365;-94
2022/03/20 13:34:49;;;;;;;32.13;19.77;;;11.50;47.40;;;;;;5027081;28;20201;-94
2022/03/20 13:37:31;;;;;;;32.03;18.50;;;11.50;47.60;;;;;;5027781;28;20251;-94